createdAt,value
2022-12-05T00:04:11.258Z,49.2
2022-12-05T00:19:53.640Z,51.5
2022-12-05T00:35:36.339Z,49.8
2022-12-05T00:51:19.243Z,50
2022-12-05T01:07:02.294Z,50.8
2022-12-05T01:22:44.513Z,50.4
2022-12-05T01:38:27.303Z,50
2022-12-05T01:54:10.354Z,49
2022-12-05T02:09:53.431Z,49.7
2022-12-05T02:25:35.884Z,47.8
2022-12-05T02:41:18.485Z,48.5
2022-12-05T02:57:01.350Z,45.9
2022-12-05T03:12:44.331Z,44.9
2022-12-05T03:28:26.704Z,43.8
2022-12-05T03:44:09.688Z,43.1
2022-12-05T03:59:52.097Z,40.3
2022-12-05T04:15:34.378Z,40.3
2022-12-05T04:31:16.595Z,39
2022-12-05T04:46:59.352Z,37.4
2022-12-05T05:02:41.752Z,37.9
2022-12-05T05:18:24.601Z,33.8
2022-12-05T05:34:07.003Z,31.9
2022-12-05T05:49:49.979Z,29.8
2022-12-05T06:05:32.722Z,27.2
2022-12-05T06:21:15.401Z,26.4
2022-12-05T06:36:57.698Z,26.4
2022-12-05T06:52:40.169Z,26.9
2022-12-05T07:08:22.737Z,25.5
2022-12-05T07:24:05.840Z,27.1
2022-12-05T07:39:48.346Z,26.1
2022-12-05T07:55:30.782Z,26.4
2022-12-05T08:11:13.027Z,26
2022-12-05T08:26:55.129Z,27.3
2022-12-05T08:42:38.013Z,24.1
2022-12-05T08:58:20.552Z,21.3
2022-12-05T09:14:03.360Z,20.8
2022-12-05T09:29:46.054Z,22.3
2022-12-05T09:45:28.665Z,21.6
2022-12-05T10:01:11.007Z,22.5
2022-12-05T10:16:53.595Z,21.8
2022-12-05T10:32:36.180Z,21.1
2022-12-05T10:48:19.079Z,21.4
2022-12-05T11:04:01.228Z,21.8
2022-12-05T11:19:43.837Z,23
2022-12-05T11:35:26.529Z,23.6
2022-12-05T11:51:09.499Z,22.3
2022-12-05T12:06:52.595Z,24.9
2022-12-05T12:22:35.705Z,26
2022-12-05T12:38:18.719Z,26.9
2022-12-05T12:54:00.914Z,26.2
2022-12-05T13:09:43.421Z,28.4
2022-12-05T13:25:25.622Z,27.4
2022-12-05T13:41:08.265Z,28.8
2022-12-05T13:56:51.275Z,30.5
2022-12-05T14:12:33.508Z,31.4
2022-12-05T14:28:15.978Z,29.6
2022-12-05T14:43:58.671Z,33.9
2022-12-05T14:59:41.513Z,34.2
2022-12-05T15:15:24.480Z,37.09
2022-12-05T15:31:07.607Z,36.3
2022-12-05T15:46:50.405Z,36.4
2022-12-05T16:02:33.151Z,34.4
2022-12-05T16:18:15.454Z,40.2
2022-12-05T16:33:58.181Z,38.2
2022-12-05T16:49:41.125Z,37.8
2022-12-05T17:05:23.431Z,68.6
2022-12-05T17:21:05.667Z,42.8
2022-12-05T17:36:48.127Z,44.1
2022-12-05T17:37:35.513Z,47.3
2022-12-05T17:53:17.916Z,43.9
2022-12-05T18:09:00.177Z,44.2
2022-12-05T18:24:42.489Z,48.3
2022-12-05T18:40:25.116Z,55.9
2022-12-05T18:56:08.082Z,43.3
2022-12-05T19:11:50.767Z,42.2
2022-12-05T19:27:33.006Z,45.2
2022-12-05T19:43:15.389Z,46.1
2022-12-05T19:58:57.640Z,42.8
2022-12-05T20:14:40.787Z,40
2022-12-05T20:30:23.612Z,37.59
2022-12-05T20:46:06.105Z,31
2022-12-05T21:01:48.794Z,28.4
2022-12-05T21:17:31.335Z,28.5
2022-12-05T21:33:14.308Z,26
2022-12-05T21:48:57.333Z,24.4
2022-12-05T22:04:39.849Z,22.9
2022-12-05T22:20:22.951Z,21.7
2022-12-05T22:36:05.799Z,22.3
2022-12-05T22:51:48.081Z,21.7
2022-12-05T23:07:30.839Z,22.1
2022-12-05T23:23:13.051Z,21.1
2022-12-05T23:38:55.469Z,19
2022-12-05T23:54:38.433Z,19.1
